PWSweather.com
Personal Weather Stations
Station Observations
KVAGLENALL
West Henrico, Glen Allen, VA 23060-6503

West HenricoGlen Allen, VA 23060-6503

Lat: 37.6554, Lon: -77.5693

Elevation: 273

Station Type: Davis Vantage Pro II

www.glenallenweather.com

High Low Average
Temperature 36.7°F2.6°F 18.1°F-7.7°F 29.3°F-1.5°F
Dew Point 18.9°F-7.3°F 7.6°F-13.6°F 11.8°F-11.2°F
Winds 11.1 mph S17.9 mph S 0.1 mph 0.2 mph 4.1 mph 6.6 mph
Wind Gusts 19.2 mph30.9 mph 0.1 mph0.2 mph 7.3 mph11.7 mph
Humidity 68% 34% 49%
Pressure 29.93 in1013.50 in 29.65 in1004.10 in -
Precipitation 0.04 in1.00 in - -
Hour Temp Dew Point Humidity Winds Wind Gusts Pressure Precip Precip Rate Daily Precip Total
12:00 AM 25.1°F-3.8°C 9.1°F-12.7°C 50% 2.0 mph NW3.2 kmh NW 5.1 mph8.2 kmh 29.78 in1008.5 mb 0.00 in0.0 mm 0.00 in0.0 mm 0.00 in0.0 mm
12:15 AM 24.5°F-4.2°C 9.0°F-12.8°C 51% 6.1 mph NW9.8 kmh NW 6.1 mph9.8 kmh 29.78 in1008.5 mb 0.00 in0.0 mm 0.00 in0.0 mm 0.00 in0.0 mm
12:30 AM 24.0°F-4.4°C 9.4°F-12.6°C 53% 5.1 mph NW8.2 kmh NW 8.1 mph13.0 kmh 29.78 in1008.5 mb 0.00 in0.0 mm 0.00 in0.0 mm 0.00 in0.0 mm
12:45 AM 23.4°F-4.8°C 8.8°F-12.9°C 53% 1.0 mph NW1.6 kmh NW 5.1 mph8.2 kmh 29.78 in1008.5 mb 0.00 in0.0 mm 0.00 in0.0 mm 0.00 in0.0 mm
01:00 AM 23.3°F-4.8°C 8.7°F-12.9°C 53% 1.0 mph NW1.6 kmh NW 6.1 mph9.8 kmh 29.78 in1008.5 mb 0.00 in0.0 mm 0.00 in0.0 mm 0.00 in0.0 mm
01:15 AM 22.4°F-5.3°C 8.3°F-13.2°C 54% 2.0 mph NNW3.2 kmh NNW 2.1 mph3.4 kmh 29.79 in1008.8 mb 0.00 in0.0 mm 0.00 in0.0 mm 0.00 in0.0 mm
01:30 AM 22.5°F-5.3°C 8.4°F-13.1°C 54% 1.0 mph W1.6 kmh W 3.1 mph5.0 kmh 29.79 in1008.8 mb 0.00 in0.0 mm 0.00 in0.0 mm 0.00 in0.0 mm
01:45 AM 21.7°F-5.7°C 7.6°F-13.6°C 54% 2.0 mph NW3.2 kmh NW 3.1 mph5.0 kmh 29.80 in1009.1 mb 0.00 in0.0 mm 0.00 in0.0 mm 0.00 in0.0 mm
02:00 AM 21.2°F-6.0°C 8.8°F-12.9°C 58% 1.0 mph NW1.6 kmh NW 3.1 mph5.0 kmh 29.80 in1009.1 mb 0.00 in0.0 mm 0.00 in0.0 mm 0.00 in0.0 mm
02:15 AM 20.5°F-6.4°C 9.6°F-12.4°C 62% 1.0 mph NW1.6 kmh NW 2.1 mph3.4 kmh 29.80 in1009.1 mb 0.00 in0.0 mm 0.00 in0.0 mm 0.00 in0.0 mm
02:30 AM 20.4°F-6.4°C 9.5°F-12.5°C 62% 0.1 mph WNW0.2 kmh WNW 3.1 mph5.0 kmh 29.80 in1009.1 mb 0.00 in0.0 mm 0.00 in0.0 mm 0.00 in0.0 mm
02:45 AM 20.3°F-6.5°C 9.7°F-12.4°C 63% 1.0 mph WNW1.6 kmh WNW 2.1 mph3.4 kmh 29.81 in1009.5 mb 0.00 in0.0 mm 0.00 in0.0 mm 0.00 in0.0 mm
03:00 AM 19.9°F-6.7°C 9.4°F-12.6°C 63% 1.0 mph WNW1.6 kmh WNW 2.1 mph3.4 kmh 29.82 in1009.8 mb 0.00 in0.0 mm 0.00 in0.0 mm 0.00 in0.0 mm
03:15 AM 19.5°F-6.9°C 9.7°F-12.4°C 65% 0.1 mph WNW0.2 kmh WNW 1.1 mph1.8 kmh 29.82 in1009.8 mb 0.00 in0.0 mm 0.00 in0.0 mm 0.00 in0.0 mm
03:30 AM 19.4°F-7.0°C 10.6°F-11.9°C 68% 1.0 mph W1.6 kmh W 2.1 mph3.4 kmh 29.82 in1009.8 mb 0.00 in0.0 mm 0.00 in0.0 mm 0.00 in0.0 mm
03:45 AM 19.6°F-6.9°C 9.4°F-12.6°C 64% 1.0 mph NW1.6 kmh NW 1.1 mph1.8 kmh 29.82 in1009.8 mb 0.00 in0.0 mm 0.00 in0.0 mm 0.00 in0.0 mm
04:00 AM 19.6°F-6.9°C 9.1°F-12.7°C 63% 0.1 mph NW0.2 kmh NW 1.1 mph1.8 kmh 29.82 in1009.8 mb 0.00 in0.0 mm 0.00 in0.0 mm 0.00 in0.0 mm
04:15 AM 19.4°F-7.0°C 8.9°F-12.8°C 63% 0.1 mph W0.2 kmh W 2.1 mph3.4 kmh 29.82 in1009.8 mb 0.00 in0.0 mm 0.00 in0.0 mm 0.00 in0.0 mm
04:30 AM 19.2°F-7.1°C 9.4°F-12.6°C 65% 0.1 mph WSW0.2 kmh WSW 0.1 mph0.2 kmh 29.82 in1009.8 mb 0.00 in0.0 mm 0.00 in0.0 mm 0.00 in0.0 mm
04:45 AM 18.9°F-7.3°C 10.1°F-12.2°C 68% 3.0 mph WNW4.8 kmh WNW 3.1 mph5.0 kmh 29.83 in1010.2 mb 0.00 in0.0 mm 0.00 in0.0 mm 0.00 in0.0 mm
05:00 AM 18.1°F-7.7°C 9.3°F-12.6°C 68% 2.0 mph NW3.2 kmh NW 2.1 mph3.4 kmh 29.83 in1010.2 mb 0.00 in0.0 mm 0.00 in0.0 mm 0.00 in0.0 mm
05:15 AM 18.1°F-7.7°C 9.3°F-12.6°C 68% 0.1 mph W0.2 kmh W 0.1 mph0.2 kmh 29.84 in1010.5 mb 0.00 in0.0 mm 0.00 in0.0 mm 0.00 in0.0 mm
05:30 AM 19.1°F-7.2°C 8.9°F-12.8°C 64% 1.0 mph SSW1.6 kmh SSW 3.1 mph5.0 kmh 29.84 in1010.5 mb 0.00 in0.0 mm 0.00 in0.0 mm 0.00 in0.0 mm
05:45 AM 19.6°F-6.9°C 9.1°F-12.7°C 63% 1.0 mph SW1.6 kmh SW 2.1 mph3.4 kmh 29.86 in1011.2 mb 0.00 in0.0 mm 0.00 in0.0 mm 0.00 in0.0 mm
06:00 AM 19.0°F-7.2°C 8.8°F-12.9°C 64% 1.0 mph W1.6 kmh W 2.1 mph3.4 kmh 29.87 in1011.5 mb 0.00 in0.0 mm 0.00 in0.0 mm 0.00 in0.0 mm
06:15 AM 20.4°F-6.4°C 9.1°F-12.7°C 61% 4.1 mph W6.6 kmh W 7.1 mph11.4 kmh 29.87 in1011.5 mb 0.00 in0.0 mm 0.00 in0.0 mm 0.00 in0.0 mm
06:30 AM 21.0°F-6.1°C 9.3°F-12.6°C 60% 3.0 mph WSW4.8 kmh WSW 6.1 mph9.8 kmh 29.88 in1011.9 mb 0.00 in0.0 mm 0.00 in0.0 mm 0.00 in0.0 mm
06:45 AM 21.7°F-5.7°C 8.4°F-13.1°C 56% 4.1 mph WSW6.6 kmh WSW 6.1 mph9.8 kmh 29.88 in1011.9 mb 0.01 in0.3 mm 0.04 in1.0 mm 0.01 in0.3 mm
07:00 AM 21.9°F-5.6°C 9.0°F-12.8°C 57% 3.0 mph NW4.8 kmh NW 7.1 mph11.4 kmh 29.89 in1012.2 mb 0.01 in0.3 mm 0.00 in0.0 mm 0.01 in0.3 mm
07:15 AM 22.0°F-5.6°C 8.3°F-13.2°C 55% 2.0 mph NW3.2 kmh NW 4.1 mph6.6 kmh 29.90 in1012.5 mb 0.01 in0.3 mm 0.00 in0.0 mm 0.01 in0.3 mm
07:30 AM 21.7°F-5.7°C 8.4°F-13.1°C 56% 3.0 mph W4.8 kmh W 6.1 mph9.8 kmh 29.91 in1012.9 mb 0.01 in0.3 mm 0.00 in0.0 mm 0.01 in0.3 mm
07:45 AM 22.1°F-5.5°C 8.8°F-12.9°C 56% 3.0 mph NW4.8 kmh NW 3.1 mph5.0 kmh 29.91 in1012.9 mb 0.00 in0.0 mm 0.00 in0.0 mm 0.01 in0.3 mm
08:00 AM 23.4°F-4.8°C 8.8°F-12.9°C 53% 3.0 mph WSW4.8 kmh WSW 4.1 mph6.6 kmh 29.91 in1012.9 mb 0.00 in0.0 mm 0.00 in0.0 mm 0.01 in0.3 mm
08:15 AM 25.0°F-3.9°C 9.5°F-12.5°C 51% 8.1 mph NW13.0 kmh NW 9.1 mph14.6 kmh 29.92 in1013.2 mb 0.00 in0.0 mm 0.00 in0.0 mm 0.01 in0.3 mm
08:30 AM 26.4°F-3.1°C 9.9°F-12.3°C 49% 2.0 mph WSW3.2 kmh WSW 8.1 mph13.0 kmh 29.92 in1013.2 mb 0.00 in0.0 mm 0.00 in0.0 mm 0.01 in0.3 mm
08:45 AM 27.8°F-2.3°C 10.2°F-12.1°C 47% 3.0 mph WSW4.8 kmh WSW 5.1 mph8.2 kmh 29.92 in1013.2 mb 0.00 in0.0 mm 0.00 in0.0 mm 0.01 in0.3 mm
09:00 AM 28.9°F-1.7°C 11.3°F-11.5°C 47% 2.0 mph SW3.2 kmh SW 6.1 mph9.8 kmh 29.93 in1013.5 mb 0.00 in0.0 mm 0.00 in0.0 mm 0.01 in0.3 mm
09:15 AM 29.4°F-1.4°C 10.7°F-11.8°C 45% 4.1 mph W6.6 kmh W 8.1 mph13.0 kmh 29.93 in1013.5 mb 0.00 in0.0 mm 0.00 in0.0 mm 0.01 in0.3 mm
09:30 AM 30.3°F-0.9°C 11.5°F-11.4°C 45% 5.1 mph WSW8.2 kmh WSW 5.1 mph8.2 kmh 29.93 in1013.5 mb 0.00 in0.0 mm 0.00 in0.0 mm 0.01 in0.3 mm
09:45 AM 30.1°F-1.1°C 10.3°F-12.1°C 43% 11.1 mph S17.9 kmh S 13.2 mph21.2 kmh 29.93 in1013.5 mb 0.00 in0.0 mm 0.00 in0.0 mm 0.01 in0.3 mm
10:00 AM 31.3°F-0.4°C 11.9°F-11.2°C 44% 10.1 mph SW16.3 kmh SW 13.2 mph21.2 kmh 29.93 in1013.5 mb 0.00 in0.0 mm 0.00 in0.0 mm 0.01 in0.3 mm
10:15 AM 32.1°F0.1°C 12.6°F-10.8°C 44% 6.1 mph SW9.8 kmh SW 10.1 mph16.3 kmh 29.92 in1013.2 mb 0.00 in0.0 mm 0.00 in0.0 mm 0.01 in0.3 mm
10:30 AM 32.1°F0.1°C 10.5°F-11.9°C 40% 4.1 mph SW6.6 kmh SW 12.2 mph19.6 kmh 29.92 in1013.2 mb 0.00 in0.0 mm 0.00 in0.0 mm 0.01 in0.3 mm
10:45 AM 32.1°F0.1°C 11.0°F-11.7°C 41% 8.1 mph SW13.0 kmh SW 13.2 mph21.2 kmh 29.92 in1013.2 mb 0.00 in0.0 mm 0.00 in0.0 mm 0.01 in0.3 mm
11:00 AM 33.0°F0.6°C 11.9°F-11.2°C 41% 5.1 mph NW8.2 kmh NW 16.2 mph26.1 kmh 29.91 in1012.9 mb 0.00 in0.0 mm 0.00 in0.0 mm 0.01 in0.3 mm
11:15 AM 34.0°F1.1°C 12.8°F-10.7°C 41% 3.0 mph SSW4.8 kmh SSW 8.1 mph13.0 kmh 29.91 in1012.9 mb 0.00 in0.0 mm 0.00 in0.0 mm 0.01 in0.3 mm
11:30 AM 34.0°F1.1°C 11.6°F-11.3°C 39% 8.1 mph WSW13.0 kmh WSW 13.2 mph21.2 kmh 29.90 in1012.5 mb 0.00 in0.0 mm 0.00 in0.0 mm 0.01 in0.3 mm
11:45 AM 34.5°F1.4°C 12.7°F-10.7°C 40% 5.1 mph SW8.2 kmh SW 12.2 mph19.6 kmh 29.90 in1012.5 mb 0.00 in0.0 mm 0.00 in0.0 mm 0.01 in0.3 mm
12:00 PM 35.0°F1.7°C 13.1°F-10.5°C 40% 8.1 mph W13.0 kmh W 10.1 mph16.3 kmh 29.88 in1011.9 mb 0.00 in0.0 mm 0.00 in0.0 mm 0.01 in0.3 mm
12:15 PM 35.8°F2.1°C 12.7°F-10.7°C 38% 9.1 mph WNW14.6 kmh WNW 16.2 mph26.1 kmh 29.89 in1012.2 mb 0.00 in0.0 mm 0.00 in0.0 mm 0.01 in0.3 mm
12:30 PM 35.5°F1.9°C 11.8°F-11.2°C 37% 5.1 mph NW8.2 kmh NW 7.1 mph11.4 kmh 29.88 in1011.9 mb 0.00 in0.0 mm 0.00 in0.0 mm 0.01 in0.3 mm
12:45 PM 35.7°F2.1°C 10.1°F-12.2°C 34% 8.1 mph SW13.0 kmh SW 8.1 mph13.0 kmh 29.87 in1011.5 mb 0.00 in0.0 mm 0.00 in0.0 mm 0.01 in0.3 mm
01:00 PM 36.3°F2.4°C 11.3°F-11.5°C 35% 7.1 mph S11.4 kmh S 13.2 mph21.2 kmh 29.86 in1011.2 mb 0.00 in0.0 mm 0.00 in0.0 mm 0.01 in0.3 mm
01:15 PM 35.6°F2.0°C 12.5°F-10.8°C 38% 5.1 mph SW8.2 kmh SW 7.1 mph11.4 kmh 29.85 in1010.8 mb 0.00 in0.0 mm 0.00 in0.0 mm 0.01 in0.3 mm
01:30 PM 36.1°F2.3°C 12.3°F-10.9°C 37% 9.1 mph WSW14.6 kmh WSW 19.2 mph30.9 kmh 29.85 in1010.8 mb 0.00 in0.0 mm 0.00 in0.0 mm 0.01 in0.3 mm
01:45 PM 36.6°F2.6°C 11.5°F-11.4°C 35% 8.1 mph WSW13.0 kmh WSW 12.2 mph19.6 kmh 29.85 in1010.8 mb 0.00 in0.0 mm 0.00 in0.0 mm 0.01 in0.3 mm
02:00 PM 36.2°F2.3°C 11.8°F-11.2°C 36% 9.1 mph W14.6 kmh W 11.2 mph18.0 kmh 29.85 in1010.8 mb 0.00 in0.0 mm 0.00 in0.0 mm 0.01 in0.3 mm
02:15 PM 35.4°F1.9°C 12.3°F-10.9°C 38% 7.1 mph S11.4 kmh S 12.2 mph19.6 kmh 29.85 in1010.8 mb 0.00 in0.0 mm 0.00 in0.0 mm 0.01 in0.3 mm
02:30 PM 35.0°F1.7°C 12.0°F-11.1°C 38% 11.1 mph SW17.9 kmh SW 16.2 mph26.1 kmh 29.85 in1010.8 mb 0.00 in0.0 mm 0.00 in0.0 mm 0.01 in0.3 mm
02:45 PM 35.7°F2.1°C 12.6°F-10.8°C 38% 3.0 mph WSW4.8 kmh WSW 9.1 mph14.6 kmh 29.84 in1010.5 mb 0.00 in0.0 mm 0.00 in0.0 mm 0.01 in0.3 mm
03:00 PM 35.0°F1.7°C 12.0°F-11.1°C 38% 3.0 mph SW4.8 kmh SW 9.1 mph14.6 kmh 29.83 in1010.2 mb 0.00 in0.0 mm 0.00 in0.0 mm 0.01 in0.3 mm
03:15 PM 34.7°F1.5°C 12.8°F-10.7°C 40% 5.1 mph WSW8.2 kmh WSW 9.1 mph14.6 kmh 29.82 in1009.8 mb 0.00 in0.0 mm 0.00 in0.0 mm 0.01 in0.3 mm
03:30 PM 34.5°F1.4°C 12.1°F-11.1°C 39% 4.1 mph SSW6.6 kmh SSW 6.1 mph9.8 kmh 29.82 in1009.8 mb 0.00 in0.0 mm 0.00 in0.0 mm 0.01 in0.3 mm
03:45 PM 34.4°F1.3°C 12.0°F-11.1°C 39% 7.1 mph SW11.4 kmh SW 11.2 mph18.0 kmh 29.82 in1009.8 mb 0.00 in0.0 mm 0.00 in0.0 mm 0.01 in0.3 mm
04:00 PM 34.3°F1.3°C 11.9°F-11.2°C 39% 6.1 mph WSW9.8 kmh WSW 10.1 mph16.3 kmh 29.83 in1010.2 mb 0.00 in0.0 mm 0.00 in0.0 mm 0.01 in0.3 mm
04:15 PM 34.1°F1.2°C 12.3°F-10.9°C 40% 4.1 mph S6.6 kmh S 7.1 mph11.4 kmh 29.82 in1009.8 mb 0.00 in0.0 mm 0.00 in0.0 mm 0.01 in0.3 mm
04:30 PM 33.8°F1.0°C 12.6°F-10.8°C 41% 2.0 mph WSW3.2 kmh WSW 4.1 mph6.6 kmh 29.82 in1009.8 mb 0.00 in0.0 mm 0.00 in0.0 mm 0.01 in0.3 mm
04:45 PM 33.7°F0.9°C 12.5°F-10.8°C 41% 2.0 mph SSE3.2 kmh SSE 6.1 mph9.8 kmh 29.82 in1009.8 mb 0.00 in0.0 mm 0.00 in0.0 mm 0.01 in0.3 mm
05:00 PM 33.2°F0.7°C 12.6°F-10.8°C 42% 1.0 mph S1.6 kmh S 6.1 mph9.8 kmh 29.81 in1009.5 mb 0.00 in0.0 mm 0.00 in0.0 mm 0.01 in0.3 mm
05:15 PM 33.1°F0.6°C 13.0°F-10.6°C 43% 4.1 mph SSW6.6 kmh SSW 6.1 mph9.8 kmh 29.81 in1009.5 mb 0.00 in0.0 mm 0.00 in0.0 mm 0.01 in0.3 mm
05:30 PM 33.0°F0.6°C 12.9°F-10.6°C 43% 3.0 mph SSW4.8 kmh SSW 7.1 mph11.4 kmh 29.80 in1009.1 mb 0.00 in0.0 mm 0.00 in0.0 mm 0.01 in0.3 mm
06:15 PM 33.4°F0.8°C 13.8°F-10.1°C 44% 3.0 mph SSW4.8 kmh SSW 8.1 mph13.0 kmh 29.77 in1008.1 mb 0.00 in0.0 mm 0.00 in0.0 mm 0.01 in0.3 mm
06:30 PM 33.6°F0.9°C 14.0°F-10.0°C 44% 7.1 mph SSW11.4 kmh SSW 7.1 mph11.4 kmh 29.77 in1008.1 mb 0.00 in0.0 mm 0.00 in0.0 mm 0.01 in0.3 mm
06:45 PM 33.7°F0.9°C 13.6°F-10.2°C 43% 6.1 mph SW9.8 kmh SW 7.1 mph11.4 kmh 29.77 in1008.1 mb 0.00 in0.0 mm 0.00 in0.0 mm 0.01 in0.3 mm
07:00 PM 34.1°F1.2°C 14.5°F-9.7°C 44% 1.0 mph SSW1.6 kmh SSW 6.1 mph9.8 kmh 29.78 in1008.5 mb 0.00 in0.0 mm 0.00 in0.0 mm 0.01 in0.3 mm
07:15 PM 34.2°F1.2°C 14.6°F-9.7°C 44% 2.0 mph SW3.2 kmh SW 2.1 mph3.4 kmh 29.76 in1007.8 mb 0.00 in0.0 mm 0.00 in0.0 mm 0.01 in0.3 mm
07:30 PM 34.6°F1.4°C 14.4°F-9.8°C 43% 3.0 mph S4.8 kmh S 5.1 mph8.2 kmh 29.77 in1008.1 mb 0.00 in0.0 mm 0.00 in0.0 mm 0.01 in0.3 mm
07:45 PM 34.7°F1.5°C 15.0°F-9.4°C 44% 6.1 mph SW9.8 kmh SW 9.1 mph14.6 kmh 29.77 in1008.1 mb 0.00 in0.0 mm 0.00 in0.0 mm 0.01 in0.3 mm
08:00 PM 34.8°F1.6°C 15.1°F-9.4°C 44% 3.0 mph S4.8 kmh S 6.1 mph9.8 kmh 29.76 in1007.8 mb 0.00 in0.0 mm 0.00 in0.0 mm 0.01 in0.3 mm
08:15 PM 34.8°F1.6°C 15.1°F-9.4°C 44% 5.1 mph SSW8.2 kmh SSW 7.1 mph11.4 kmh 29.74 in1007.1 mb 0.00 in0.0 mm 0.00 in0.0 mm 0.01 in0.3 mm
08:30 PM 34.9°F1.6°C 14.7°F-9.6°C 43% 2.0 mph S3.2 kmh S 6.1 mph9.8 kmh 29.72 in1006.4 mb 0.00 in0.0 mm 0.00 in0.0 mm 0.01 in0.3 mm
08:45 PM 35.2°F1.8°C 15.5°F-9.2°C 44% 4.1 mph SW6.6 kmh SW 9.1 mph14.6 kmh 29.72 in1006.4 mb 0.00 in0.0 mm 0.00 in0.0 mm 0.01 in0.3 mm
09:00 PM 35.7°F2.1°C 15.9°F-8.9°C 44% 7.1 mph SSW11.4 kmh SSW 8.1 mph13.0 kmh 29.70 in1005.8 mb 0.00 in0.0 mm 0.00 in0.0 mm 0.01 in0.3 mm
09:15 PM 35.4°F1.9°C 16.2°F-8.8°C 45% 6.1 mph S9.8 kmh S 11.2 mph18.0 kmh 29.69 in1005.4 mb 0.00 in0.0 mm 0.00 in0.0 mm 0.01 in0.3 mm
09:30 PM 35.3°F1.8°C 16.6°F-8.6°C 46% 5.1 mph S8.2 kmh S 12.2 mph19.6 kmh 29.70 in1005.8 mb 0.00 in0.0 mm 0.00 in0.0 mm 0.01 in0.3 mm
09:45 PM 34.9°F1.6°C 16.2°F-8.8°C 46% 6.1 mph S9.8 kmh S 6.1 mph9.8 kmh 29.70 in1005.8 mb 0.00 in0.0 mm 0.00 in0.0 mm 0.01 in0.3 mm
10:00 PM 34.9°F1.6°C 16.7°F-8.5°C 47% 7.1 mph S11.4 kmh S 10.1 mph16.3 kmh 29.69 in1005.4 mb 0.00 in0.0 mm 0.00 in0.0 mm 0.01 in0.3 mm
10:15 PM 34.7°F1.5°C 17.0°F-8.3°C 48% 3.0 mph SW4.8 kmh SW 9.1 mph14.6 kmh 29.69 in1005.4 mb 0.00 in0.0 mm 0.00 in0.0 mm 0.01 in0.3 mm
10:30 PM 34.7°F1.5°C 17.0°F-8.3°C 48% 1.0 mph S1.6 kmh S 7.1 mph11.4 kmh 29.69 in1005.4 mb 0.00 in0.0 mm 0.00 in0.0 mm 0.01 in0.3 mm
10:45 PM 34.8°F1.6°C 17.1°F-8.3°C 48% 5.1 mph S8.2 kmh S 6.1 mph9.8 kmh 29.67 in1004.7 mb 0.00 in0.0 mm 0.00 in0.0 mm 0.01 in0.3 mm
11:00 PM 34.9°F1.6°C 17.2°F-8.2°C 48% 7.1 mph SE11.4 kmh SE 9.1 mph14.6 kmh 29.67 in1004.7 mb 0.00 in0.0 mm 0.00 in0.0 mm 0.01 in0.3 mm
11:15 PM 35.5°F1.9°C 18.2°F-7.7°C 49% 9.1 mph S14.6 kmh S 18.2 mph29.3 kmh 29.66 in1004.4 mb 0.00 in0.0 mm 0.00 in0.0 mm 0.01 in0.3 mm
11:30 PM 36.4°F2.4°C 18.6°F-7.4°C 48% 7.1 mph SW11.4 kmh SW 13.2 mph21.2 kmh 29.65 in1004.1 mb 0.00 in0.0 mm 0.00 in0.0 mm 0.01 in0.3 mm
11:45 PM 36.7°F2.6°C 18.9°F-7.3°C 48% 3.0 mph SW4.8 kmh SW 10.1 mph16.3 kmh 29.65 in1004.1 mb 0.00 in0.0 mm 0.00 in0.0 mm 0.01 in0.3 mm